createdAt,value
2023-05-24T00:02:17.320Z,15.40
2023-05-24T00:05:03.001Z,15.30
2023-05-24T00:07:49.311Z,16.15
2023-05-24T00:10:34.615Z,17.63
2023-05-24T00:13:20.502Z,13.70
2023-05-24T00:16:06.210Z,18.67
2023-05-24T00:18:52.346Z,15.60
2023-05-24T00:21:38.101Z,16.20
2023-05-24T00:24:24.106Z,15.95
2023-05-24T00:27:11.898Z,16.13
2023-05-24T00:29:58.255Z,14.50
2023-05-24T00:32:43.760Z,18.02
2023-05-24T00:35:29.818Z,15.00
2023-05-24T00:38:15.915Z,18.17
2023-05-24T00:41:02.098Z,17.83
2023-05-24T00:43:48.016Z,14.75
2023-05-24T00:46:34.116Z,17.08
2023-05-24T00:49:19.669Z,17.77
2023-05-24T00:52:06.554Z,17.67
2023-05-24T00:54:52.134Z,15.10
2023-05-24T00:57:38.285Z,15.18
2023-05-24T01:00:24.332Z,17.30
2023-05-24T01:03:10.392Z,15.27
2023-05-24T01:06:02.742Z,15.88
2023-05-24T01:09:19.985Z,15.48
2023-05-24T01:12:35.959Z,18.55
2023-05-24T01:15:48.985Z,14.57
2023-05-24T01:18:55.577Z,16.30
2023-05-24T01:21:56.332Z,15.95
2023-05-24T01:25:03.766Z,13.90
2023-05-24T01:27:50.583Z,14.60
2023-05-24T01:30:36.677Z,15.05
2023-05-24T01:33:22.460Z,14.50
2023-05-24T01:36:08.725Z,15.48
2023-05-24T01:38:54.524Z,14.70
2023-05-24T01:41:47.173Z,16.85
2023-05-24T01:44:37.595Z,14.15
2023-05-24T01:47:33.189Z,12.40
2023-05-24T01:50:32.499Z,14.30
2023-05-24T01:53:19.980Z,11.70
2023-05-24T01:56:06.785Z,11.93
2023-05-24T01:58:53.346Z,14.60
2023-05-24T02:01:39.898Z,12.68
2023-05-24T02:04:25.964Z,12.18
2023-05-24T02:07:12.176Z,13.65
2023-05-24T02:09:57.715Z,11.27
2023-05-24T02:12:43.612Z,12.55
2023-05-24T02:15:30.636Z,11.98
2023-05-24T02:18:18.738Z,15.85
2023-05-24T02:21:04.451Z,14.07
2023-05-24T02:23:50.375Z,14.07
2023-05-24T02:26:36.317Z,13.60
2023-05-24T02:29:23.189Z,12.30
2023-05-24T02:32:08.893Z,13.63
2023-05-24T02:34:54.686Z,17.35
2023-05-24T02:37:41.053Z,18.00
2023-05-24T02:40:26.963Z,17.58
2023-05-24T02:43:12.347Z,16.63
2023-05-24T02:45:58.243Z,16.80
2023-05-24T02:48:43.631Z,14.73
2023-05-24T02:51:29.794Z,20.50
2023-05-24T02:54:17.759Z,13.50
2023-05-24T02:57:04.133Z,17.25
2023-05-24T02:59:50.165Z,15.70
2023-05-24T03:02:38.635Z,14.98
2023-05-24T03:05:24.902Z,13.82
2023-05-24T03:08:10.945Z,15.70
2023-05-24T03:10:56.779Z,16.48
2023-05-24T03:13:42.583Z,17.52
2023-05-24T03:16:29.511Z,16.90
2023-05-24T03:19:17.394Z,15.68
2023-05-24T03:22:03.438Z,14.90
2023-05-24T03:24:50.100Z,13.98
2023-05-24T03:27:36.721Z,14.25
2023-05-24T03:30:23.150Z,13.60
2023-05-24T03:33:12.768Z,12.68
2023-05-24T03:35:59.114Z,13.20
2023-05-24T03:38:45.161Z,13.32
2023-05-24T03:41:31.354Z,11.25
2023-05-24T03:44:19.293Z,12.40
2023-05-24T03:47:05.590Z,13.00
2023-05-24T03:49:51.579Z,11.50
2023-05-24T03:52:37.383Z,12.90
2023-05-24T03:55:22.795Z,14.02
2023-05-24T03:58:10.784Z,10.18
2023-05-24T04:00:56.998Z,11.30
2023-05-24T04:03:46.053Z,11.98
2023-05-24T04:06:31.842Z,11.07
2023-05-24T04:09:18.339Z,11.30
2023-05-24T04:12:04.179Z,10.55
2023-05-24T04:14:50.066Z,10.38
2023-05-24T04:17:35.996Z,9.27
2023-05-24T04:20:27.220Z,8.15
2023-05-24T04:25:58.901Z,9.43
2023-05-24T04:28:46.901Z,8.20
2023-05-24T04:31:34.369Z,9.93
2023-05-24T04:34:22.413Z,8.85
2023-05-24T04:37:09.562Z,6.97
2023-05-24T04:39:55.869Z,7.70
2023-05-24T04:42:42.772Z,8.18
2023-05-24T04:45:30.370Z,8.38
2023-05-24T04:48:16.705Z,7.22
2023-05-24T04:51:02.903Z,6.03
2023-05-24T04:53:49.233Z,7.97
2023-05-24T04:56:38.802Z,6.90
2023-05-24T04:59:25.060Z,8.52
2023-05-24T05:02:10.769Z,6.18
2023-05-24T05:04:56.818Z,8.10
2023-05-24T05:07:42.282Z,7.72
2023-05-24T05:10:28.608Z,6.50
2023-05-24T05:13:14.273Z,6.50
2023-05-24T05:16:00.086Z,6.50
2023-05-24T05:18:46.259Z,7.00
2023-05-24T05:21:36.493Z,8.73
2023-05-24T05:24:22.131Z,7.82
2023-05-24T05:27:09.314Z,5.38
2023-05-24T05:29:57.554Z,7.68
2023-05-24T05:32:43.970Z,8.77
2023-05-24T05:35:30.142Z,6.72
2023-05-24T05:38:16.360Z,6.20
2023-05-24T05:41:02.275Z,5.55
2023-05-24T05:43:48.380Z,6.80
2023-05-24T05:46:33.836Z,5.57
2023-05-24T05:49:20.419Z,5.13
2023-05-24T05:52:06.371Z,7.55
2023-05-24T05:54:52.264Z,6.97
2023-05-24T05:57:38.013Z,4.90
2023-05-24T06:00:24.024Z,3.83
2023-05-24T06:03:09.902Z,4.90
2023-05-24T06:05:55.949Z,6.82
2023-05-24T06:08:41.932Z,8.55
2023-05-24T06:11:28.111Z,6.15
2023-05-24T06:14:18.234Z,9.65
2023-05-24T06:19:55.176Z,4.55
2023-05-24T06:22:42.758Z,4.97
2023-05-24T06:25:38.802Z,6.07
2023-05-24T06:28:24.591Z,6.40
2023-05-24T06:31:10.319Z,4.47
2023-05-24T06:34:03.293Z,6.68
2023-05-24T06:36:51.594Z,8.13
2023-05-24T06:39:37.920Z,6.93
2023-05-24T06:42:23.518Z,5.45
2023-05-24T06:45:11.204Z,6.03
2023-05-24T06:47:57.238Z,7.13
2023-05-24T06:50:44.065Z,5.60
2023-05-24T06:53:29.968Z,5.60
2023-05-24T06:56:16.688Z,4.35
2023-05-24T06:59:02.579Z,4.78
2023-05-24T07:01:51.701Z,6.63
2023-05-24T07:04:37.749Z,4.70
2023-05-24T07:07:23.933Z,4.88
2023-05-24T07:10:10.816Z,4.40
2023-05-24T07:12:57.013Z,8.40
2023-05-24T07:15:42.823Z,6.90
2023-05-24T07:18:30.157Z,8.52
2023-05-24T07:21:16.089Z,3.78
2023-05-24T07:24:04.018Z,6.63
2023-05-24T07:26:51.124Z,7.20
2023-05-24T07:29:38.252Z,15.15
2023-05-24T07:32:24.672Z,6.00
2023-05-24T07:35:13.081Z,5.90
2023-05-24T07:37:58.510Z,5.93
2023-05-24T07:40:44.679Z,5.93
2023-05-24T07:43:30.390Z,8.00
2023-05-24T07:46:16.439Z,8.38
2023-05-24T07:49:02.468Z,6.15
2023-05-24T07:51:48.996Z,7.20
2023-05-24T07:54:34.391Z,4.72
2023-05-24T07:57:20.345Z,6.47
2023-05-24T08:00:14.637Z,8.00
2023-05-24T08:03:01.093Z,5.13
2023-05-24T08:05:47.104Z,7.97
2023-05-24T08:08:33.736Z,10.25
2023-05-24T08:11:19.663Z,8.73
2023-05-24T08:14:06.029Z,10.00
2023-05-24T08:16:51.569Z,6.35
2023-05-24T08:19:37.929Z,8.10
2023-05-24T08:22:23.449Z,9.00
2023-05-24T08:25:10.822Z,9.40
2023-05-24T08:27:57.792Z,8.10
2023-05-24T08:30:43.934Z,8.35
2023-05-24T08:33:29.990Z,8.13
2023-05-24T08:36:17.662Z,7.35
2023-05-24T08:39:04.940Z,8.27
2023-05-24T08:42:07.347Z,7.47
2023-05-24T08:45:15.023Z,9.40
2023-05-24T08:48:01.618Z,8.30
2023-05-24T08:50:47.681Z,8.48
2023-05-24T08:53:33.773Z,7.93
2023-05-24T08:56:19.744Z,7.63
2023-05-24T08:59:06.561Z,7.70
2023-05-24T09:01:54.586Z,7.60
2023-05-24T09:04:41.764Z,8.10
2023-05-24T09:07:27.752Z,6.70
2023-05-24T09:10:13.896Z,7.72
2023-05-24T09:13:02.910Z,8.15
2023-05-24T09:15:48.994Z,9.00
2023-05-24T09:18:35.174Z,7.93
2023-05-24T09:21:22.345Z,9.27
2023-05-24T09:24:08.496Z,9.13
2023-05-24T09:26:54.560Z,7.90
2023-05-24T09:29:41.426Z,7.38
2023-05-24T09:32:28.767Z,7.72
2023-05-24T09:35:14.326Z,7.78
2023-05-24T09:38:00.584Z,8.43
2023-05-24T09:40:46.986Z,8.90
2023-05-24T09:43:34.799Z,8.60
2023-05-24T09:46:21.618Z,7.40
2023-05-24T09:49:08.685Z,7.03
2023-05-24T09:51:54.889Z,8.73
2023-05-24T09:54:41.842Z,8.20
2023-05-24T09:57:28.240Z,6.93
2023-05-24T10:00:16.602Z,6.57
2023-05-24T10:03:04.744Z,7.93
2023-05-24T10:05:53.354Z,7.70
2023-05-24T10:08:39.177Z,5.15
2023-05-24T10:11:25.193Z,6.75
2023-05-24T10:14:11.150Z,8.50
2023-05-24T10:16:56.994Z,6.70
2023-05-24T10:19:42.885Z,11.93
2023-05-24T10:22:29.222Z,8.18
2023-05-24T10:25:21.872Z,10.05
2023-05-24T10:28:11.377Z,8.15
2023-05-24T10:31:13.089Z,7.50
2023-05-24T10:34:07.031Z,8.55
2023-05-24T10:36:53.342Z,5.82
2023-05-24T10:39:39.517Z,7.50
2023-05-24T10:42:26.387Z,6.50
2023-05-24T10:45:27.537Z,8.70
2023-05-24T10:48:13.370Z,6.35
2023-05-24T10:51:01.359Z,7.10
2023-05-24T10:53:47.376Z,6.95
2023-05-24T10:56:40.577Z,6.35
2023-05-24T10:59:35.163Z,6.65
2023-05-24T11:02:21.113Z,9.48
2023-05-24T11:05:07.597Z,9.18
2023-05-24T11:07:59.512Z,8.45
2023-05-24T11:10:45.304Z,8.05
2023-05-24T11:13:32.803Z,7.65
2023-05-24T11:16:37.154Z,8.30
2023-05-24T11:19:37.009Z,6.97
2023-05-24T11:22:25.544Z,8.50
2023-05-24T11:25:12.900Z,9.93
2023-05-24T11:27:58.944Z,7.95
2023-05-24T11:30:47.238Z,8.18
2023-05-24T11:33:33.273Z,12.18
2023-05-24T11:36:20.093Z,10.45
2023-05-24T11:39:08.403Z,9.23
2023-05-24T11:41:54.657Z,9.65
2023-05-24T11:44:40.711Z,9.50
2023-05-24T11:47:27.104Z,14.38
2023-05-24T11:50:16.149Z,9.52
2023-05-24T11:53:03.833Z,10.68
2023-05-24T11:55:49.325Z,10.15
2023-05-24T11:58:45.859Z,12.05
2023-05-24T12:01:31.741Z,10.88
2023-05-24T12:04:17.649Z,11.52
2023-05-24T12:07:03.689Z,14.00
2023-05-24T12:09:50.670Z,11.32
2023-05-24T12:12:45.684Z,12.77
2023-05-24T12:15:32.407Z,10.45
2023-05-24T12:18:21.722Z,8.95
2023-05-24T12:21:11.337Z,10.83
2023-05-24T12:23:57.124Z,9.80
2023-05-24T12:26:47.638Z,12.27
2023-05-24T12:32:24.033Z,14.15
2023-05-24T12:35:11.417Z,12.10
2023-05-24T12:38:01.018Z,13.65
2023-05-24T12:40:51.964Z,10.55
2023-05-24T12:43:51.349Z,9.82
2023-05-24T12:46:37.036Z,13.80
2023-05-24T12:49:24.460Z,14.30
2023-05-24T12:52:12.418Z,14.82
2023-05-24T12:54:58.765Z,13.18
2023-05-24T12:57:44.901Z,11.75
2023-05-24T13:00:31.329Z,13.25
2023-05-24T13:03:16.735Z,12.57
2023-05-24T13:06:03.016Z,12.82
2023-05-24T13:08:48.875Z,12.50
2023-05-24T13:11:35.281Z,12.95
2023-05-24T13:14:21.403Z,11.00
2023-05-24T13:17:07.878Z,15.13
2023-05-24T13:19:53.434Z,11.95
2023-05-24T13:22:39.905Z,17.55
2023-05-24T13:25:26.627Z,14.25
2023-05-24T13:28:12.370Z,14.43
2023-05-24T13:30:58.802Z,15.05
2023-05-24T13:33:45.109Z,15.82
2023-05-24T13:36:30.758Z,14.85
2023-05-24T13:39:16.953Z,16.58
2023-05-24T13:42:02.970Z,17.50
2023-05-24T13:44:49.083Z,17.83
2023-05-24T13:47:39.875Z,28.75
2023-05-24T13:50:27.173Z,18.23
2023-05-24T13:53:13.589Z,21.70
2023-05-24T13:56:00.880Z,18.13
2023-05-24T13:58:46.651Z,21.30
2023-05-24T14:01:33.610Z,19.55
2023-05-24T14:04:19.800Z,16.50
2023-05-24T14:07:08.103Z,14.32
2023-05-24T14:09:53.656Z,14.48
2023-05-24T14:12:39.588Z,18.80
2023-05-24T14:15:25.016Z,14.48
2023-05-24T14:18:11.006Z,20.65
2023-05-24T14:20:56.765Z,15.23
2023-05-24T14:23:43.038Z,26.38
2023-05-24T14:26:28.613Z,13.25
2023-05-24T14:29:14.693Z,15.52
2023-05-24T14:32:00.488Z,19.23
2023-05-24T14:34:46.934Z,26.23
2023-05-24T14:37:32.495Z,16.75
2023-05-24T14:40:19.963Z,24.30
2023-05-24T14:43:07.016Z,20.10
2023-05-24T14:45:52.911Z,21.27
2023-05-24T14:48:41.521Z,17.38
2023-05-24T14:51:27.672Z,15.85
2023-05-24T14:54:13.664Z,17.45
2023-05-24T14:57:00.130Z,16.33
2023-05-24T14:59:45.891Z,18.63
2023-05-24T15:02:31.766Z,16.27
2023-05-24T15:05:17.950Z,18.05
2023-05-24T15:08:05.059Z,20.48
2023-05-24T15:10:51.105Z,18.08
2023-05-24T15:13:38.463Z,17.17
2023-05-24T15:16:27.207Z,16.35
2023-05-24T15:19:13.456Z,18.40
2023-05-24T15:21:59.342Z,17.98
2023-05-24T15:24:45.488Z,15.90
2023-05-24T15:27:30.919Z,17.55
2023-05-24T15:30:19.260Z,19.77
2023-05-24T15:33:05.029Z,17.50
2023-05-24T15:35:51.276Z,22.00
2023-05-24T15:38:38.776Z,13.80
2023-05-24T15:41:25.190Z,14.65
2023-05-24T15:44:11.053Z,20.52
2023-05-24T15:46:57.059Z,24.80
2023-05-24T15:49:43.189Z,23.27
2023-05-24T15:52:29.004Z,23.70
2023-05-24T15:55:15.253Z,19.15
2023-05-24T15:58:01.986Z,18.90
2023-05-24T16:00:49.067Z,18.42
2023-05-24T16:03:44.815Z,16.23
2023-05-24T16:06:40.677Z,21.25
2023-05-24T16:09:30.219Z,21.25
2023-05-24T16:12:17.090Z,16.58
2023-05-24T16:15:04.350Z,18.92
2023-05-24T16:17:50.895Z,21.20
2023-05-24T16:20:37.134Z,15.77
2023-05-24T16:23:25.874Z,18.17
2023-05-24T16:26:12.781Z,17.17
2023-05-24T16:28:59.059Z,16.50
2023-05-24T16:31:46.334Z,25.13
2023-05-24T16:34:41.450Z,23.10
2023-05-24T16:37:38.942Z,19.65
2023-05-24T16:40:25.042Z,18.95
2023-05-24T16:43:11.575Z,19.10
2023-05-24T16:45:57.693Z,16.48
2023-05-24T16:48:44.593Z,20.40
2023-05-24T16:51:30.863Z,22.10
2023-05-24T16:54:17.638Z,19.50
2023-05-24T16:57:04.110Z,22.38
2023-05-24T16:59:51.196Z,22.05
2023-05-24T17:02:37.360Z,19.58
2023-05-24T17:05:25.952Z,19.15
2023-05-24T17:08:12.796Z,19.67
2023-05-24T17:10:59.369Z,18.52
2023-05-24T17:13:54.000Z,17.20
2023-05-24T17:46:25.159Z,23.75
2023-05-24T17:49:14.191Z,18.30
2023-05-24T17:52:03.416Z,19.23
2023-05-24T17:59:37.521Z,18.77
2023-05-24T18:14:19.687Z,15.95
2023-05-24T18:17:09.497Z,21.43
2023-05-24T18:24:18.196Z,16.67
2023-05-24T18:43:17.746Z,17.00
2023-05-24T18:46:05.971Z,22.30
2023-05-24T18:54:01.149Z,18.48
2023-05-24T18:56:47.863Z,18.20
2023-05-24T18:59:34.658Z,16.75
2023-05-24T19:02:21.130Z,16.42
2023-05-24T19:05:11.201Z,18.13
2023-05-24T19:07:57.677Z,19.35
2023-05-24T19:10:49.785Z,16.52
2023-05-24T19:13:36.171Z,16.02
2023-05-24T19:16:22.891Z,17.05
2023-05-24T19:19:11.368Z,16.30
2023-05-24T19:27:17.705Z,16.38
2023-05-24T19:30:05.672Z,14.93
2023-05-24T19:32:56.076Z,15.77
2023-05-24T19:41:11.611Z,15.45
2023-05-24T19:44:01.208Z,16.65
2023-05-24T21:28:37.772Z,17.27
2023-05-24T21:31:24.787Z,16.48
2023-05-24T21:45:14.611Z,15.65
2023-05-24T21:48:01.606Z,14.43
2023-05-24T22:01:42.512Z,14.32
2023-05-24T22:04:29.436Z,12.98
2023-05-24T22:18:11.441Z,16.52
2023-05-24T22:21:02.317Z,12.98
2023-05-24T22:23:50.271Z,15.77
2023-05-24T22:26:37.181Z,15.13
2023-05-24T22:40:23.531Z,16.80
2023-05-24T22:43:10.008Z,13.63
2023-05-24T22:45:56.920Z,13.23
2023-05-24T22:48:43.677Z,12.00
2023-05-24T22:51:30.386Z,11.40
2023-05-24T22:54:17.377Z,16.30
2023-05-24T23:23:54.093Z,12.43
2023-05-24T23:26:42.236Z,11.90
2023-05-24T23:29:28.527Z,10.50
2023-05-24T23:32:15.278Z,13.23
